sensor_id;sensor_type;location;lat;lon;timestamp;P1;durP1;ratioP1;P2;durP2;ratioP2
57105;SDS011;62662;56.788;23.942;2022-09-09T00:04:25;3.00;;;1.80;;
57105;SDS011;62662;56.788;23.942;2022-09-09T00:13:02;3.58;;;1.80;;
57105;SDS011;62662;56.788;23.942;2022-09-09T00:15:57;2.90;;;2.00;;
57105;SDS011;62662;56.788;23.942;2022-09-09T00:18:31;5.95;;;2.30;;
57105;SDS011;62662;56.788;23.942;2022-09-09T00:21:11;3.45;;;2.13;;
57105;SDS011;62662;56.788;23.942;2022-09-09T00:29:20;4.10;;;2.00;;
57105;SDS011;62662;56.788;23.942;2022-09-09T00:32:13;5.28;;;2.38;;
57105;SDS011;62662;56.788;23.942;2022-09-09T00:34:53;3.80;;;2.35;;
57105;SDS011;62662;56.788;23.942;2022-09-09T00:37:42;2.42;;;1.77;;
57105;SDS011;62662;56.788;23.942;2022-09-09T00:40:16;2.10;;;1.90;;
57105;SDS011;62662;56.788;23.942;2022-09-09T00:43:10;3.47;;;2.22;;
57105;SDS011;62662;56.788;23.942;2022-09-09T00:56:45;2.67;;;2.20;;
57105;SDS011;62662;56.788;23.942;2022-09-09T00:59:39;4.20;;;2.60;;
57105;SDS011;62662;56.788;23.942;2022-09-09T01:02:26;4.22;;;2.17;;
57105;SDS011;62662;56.788;23.942;2022-09-09T01:05:15;7.22;;;2.45;;
57105;SDS011;62662;56.788;23.942;2022-09-09T01:07:52;4.78;;;2.13;;
57105;SDS011;62662;56.788;23.942;2022-09-09T01:13:24;2.97;;;2.00;;
57105;SDS011;62662;56.788;23.942;2022-09-09T01:15:59;6.03;;;2.58;;
57105;SDS011;62662;56.788;23.942;2022-09-09T01:18:29;4.28;;;1.65;;
57105;SDS011;62662;56.788;23.942;2022-09-09T01:21:04;3.38;;;2.20;;
57105;SDS011;62662;56.788;23.942;2022-09-09T01:26:30;3.50;;;1.90;;
57105;SDS011;62662;56.788;23.942;2022-09-09T01:28:58;4.25;;;2.05;;
57105;SDS011;62662;56.788;23.942;2022-09-09T01:31:42;4.47;;;2.45;;
57105;SDS011;62662;56.788;23.942;2022-09-09T01:34:19;2.42;;;2.03;;
57105;SDS011;62662;56.788;23.942;2022-09-09T01:36:52;5.03;;;1.92;;
57105;SDS011;62662;56.788;23.942;2022-09-09T01:39:31;5.50;;;2.10;;
57105;SDS011;62662;56.788;23.942;2022-09-09T01:42:01;3.88;;;2.40;;
57105;SDS011;62662;56.788;23.942;2022-09-09T01:44:29;4.00;;;1.92;;
57105;SDS011;62662;56.788;23.942;2022-09-09T01:46:57;2.25;;;2.03;;
57105;SDS011;62662;56.788;23.942;2022-09-09T01:49:24;2.95;;;2.10;;
57105;SDS011;62662;56.788;23.942;2022-09-09T01:51:52;2.67;;;1.88;;
57105;SDS011;62662;56.788;23.942;2022-09-09T01:54:21;3.58;;;2.15;;
57105;SDS011;62662;56.788;23.942;2022-09-09T02:00:01;3.33;;;2.05;;
57105;SDS011;62662;56.788;23.942;2022-09-09T02:02:39;4.32;;;2.00;;
57105;SDS011;62662;56.788;23.942;2022-09-09T02:05:49;4.65;;;2.33;;
57105;SDS011;62662;56.788;23.942;2022-09-09T02:08:34;3.83;;;2.72;;
57105;SDS011;62662;56.788;23.942;2022-09-09T02:11:18;3.63;;;2.03;;
57105;SDS011;62662;56.788;23.942;2022-09-09T02:13:48;3.08;;;2.30;;
57105;SDS011;62662;56.788;23.942;2022-09-09T02:16:21;7.05;;;2.38;;
57105;SDS011;62662;56.788;23.942;2022-09-09T02:21:52;2.40;;;2.00;;
57105;SDS011;62662;56.788;23.942;2022-09-09T02:24:21;3.17;;;2.28;;
57105;SDS011;62662;56.788;23.942;2022-09-09T02:26:49;3.78;;;2.17;;
57105;SDS011;62662;56.788;23.942;2022-09-09T02:29:30;2.08;;;1.88;;
57105;SDS011;62662;56.788;23.942;2022-09-09T02:32:01;2.60;;;1.90;;
57105;SDS011;62662;56.788;23.942;2022-09-09T02:34:33;2.63;;;2.00;;
57105;SDS011;62662;56.788;23.942;2022-09-09T02:37:04;5.03;;;2.53;;
57105;SDS011;62662;56.788;23.942;2022-09-09T02:39:34;3.30;;;2.00;;
57105;SDS011;62662;56.788;23.942;2022-09-09T02:42:01;2.83;;;2.13;;
57105;SDS011;62662;56.788;23.942;2022-09-09T02:44:30;5.70;;;2.10;;
57105;SDS011;62662;56.788;23.942;2022-09-09T02:52:05;3.92;;;2.20;;
57105;SDS011;62662;56.788;23.942;2022-09-09T02:54:57;3.10;;;2.42;;
57105;SDS011;62662;56.788;23.942;2022-09-09T02:57:30;3.25;;;2.53;;
57105;SDS011;62662;56.788;23.942;2022-09-09T02:59:59;5.65;;;2.85;;
57105;SDS011;62662;56.788;23.942;2022-09-09T03:02:27;2.55;;;2.15;;
57105;SDS011;62662;56.788;23.942;2022-09-09T03:04:54;2.45;;;2.22;;
57105;SDS011;62662;56.788;23.942;2022-09-09T03:07:21;3.47;;;2.50;;
57105;SDS011;62662;56.788;23.942;2022-09-09T03:09:48;3.05;;;2.33;;
57105;SDS011;62662;56.788;23.942;2022-09-09T03:12:15;7.10;;;2.58;;
57105;SDS011;62662;56.788;23.942;2022-09-09T03:14:42;9.13;;;2.67;;
57105;SDS011;62662;56.788;23.942;2022-09-09T03:17:11;6.00;;;2.50;;
57105;SDS011;62662;56.788;23.942;2022-09-09T03:19:38;4.30;;;2.40;;
57105;SDS011;62662;56.788;23.942;2022-09-09T03:22:08;3.10;;;2.10;;
57105;SDS011;62662;56.788;23.942;2022-09-09T03:24:36;4.90;;;2.30;;
57105;SDS011;62662;56.788;23.942;2022-09-09T03:27:03;3.55;;;2.33;;
57105;SDS011;62662;56.788;23.942;2022-09-09T03:29:30;5.03;;;2.42;;
57105;SDS011;62662;56.788;23.942;2022-09-09T03:31:57;3.15;;;2.60;;
57105;SDS011;62662;56.788;23.942;2022-09-09T03:34:25;3.72;;;2.38;;
57105;SDS011;62662;56.788;23.942;2022-09-09T03:36:52;4.10;;;2.97;;
57105;SDS011;62662;56.788;23.942;2022-09-09T03:39:18;4.15;;;2.70;;
57105;SDS011;62662;56.788;23.942;2022-09-09T03:41:45;5.63;;;2.58;;
57105;SDS011;62662;56.788;23.942;2022-09-09T03:44:14;3.75;;;2.55;;
57105;SDS011;62662;56.788;23.942;2022-09-09T03:46:41;4.03;;;2.63;;
57105;SDS011;62662;56.788;23.942;2022-09-09T03:49:08;3.45;;;2.80;;
57105;SDS011;62662;56.788;23.942;2022-09-09T03:51:36;4.85;;;2.45;;
57105;SDS011;62662;56.788;23.942;2022-09-09T03:54:04;3.42;;;2.50;;
57105;SDS011;62662;56.788;23.942;2022-09-09T03:56:34;4.15;;;2.53;;
57105;SDS011;62662;56.788;23.942;2022-09-09T03:59:01;4.57;;;2.42;;
57105;SDS011;62662;56.788;23.942;2022-09-09T04:01:29;3.17;;;2.40;;
57105;SDS011;62662;56.788;23.942;2022-09-09T04:03:56;6.32;;;2.33;;
57105;SDS011;62662;56.788;23.942;2022-09-09T04:06:24;7.55;;;2.20;;
57105;SDS011;62662;56.788;23.942;2022-09-09T04:08:52;3.92;;;2.40;;
57105;SDS011;62662;56.788;23.942;2022-09-09T04:11:19;2.95;;;2.10;;
57105;SDS011;62662;56.788;23.942;2022-09-09T04:13:46;2.53;;;2.25;;
57105;SDS011;62662;56.788;23.942;2022-09-09T04:16:13;3.30;;;2.30;;
57105;SDS011;62662;56.788;23.942;2022-09-09T04:18:41;3.85;;;2.60;;
57105;SDS011;62662;56.788;23.942;2022-09-09T04:21:09;4.75;;;2.50;;
57105;SDS011;62662;56.788;23.942;2022-09-09T04:23:38;4.32;;;2.20;;
57105;SDS011;62662;56.788;23.942;2022-09-09T04:26:05;3.08;;;2.40;;
57105;SDS011;62662;56.788;23.942;2022-09-09T04:28:34;3.47;;;2.17;;
57105;SDS011;62662;56.788;23.942;2022-09-09T04:31:07;4.78;;;2.40;;
57105;SDS011;62662;56.788;23.942;2022-09-09T04:33:37;4.88;;;2.60;;
57105;SDS011;62662;56.788;23.942;2022-09-09T04:36:06;3.08;;;2.70;;
57105;SDS011;62662;56.788;23.942;2022-09-09T04:38:41;4.57;;;2.50;;
57105;SDS011;62662;56.788;23.942;2022-09-09T04:41:08;2.83;;;2.00;;
57105;SDS011;62662;56.788;23.942;2022-09-09T04:43:37;4.07;;;2.47;;
57105;SDS011;62662;56.788;23.942;2022-09-09T04:46:05;2.63;;;2.25;;
57105;SDS011;62662;56.788;23.942;2022-09-09T04:48:33;2.60;;;2.08;;
57105;SDS011;62662;56.788;23.942;2022-09-09T04:51:11;3.75;;;2.42;;
57105;SDS011;62662;56.788;23.942;2022-09-09T04:53:46;3.13;;;2.60;;
57105;SDS011;62662;56.788;23.942;2022-09-09T04:56:39;4.27;;;2.37;;
57105;SDS011;62662;56.788;23.942;2022-09-09T04:59:13;3.30;;;2.63;;
57105;SDS011;62662;56.788;23.942;2022-09-09T05:02:00;3.70;;;2.17;;
57105;SDS011;62662;56.788;23.942;2022-09-09T05:04:49;5.50;;;2.75;;
57105;SDS011;62662;56.788;23.942;2022-09-09T05:07:43;3.38;;;2.00;;
57105;SDS011;62662;56.788;23.942;2022-09-09T05:11:25;3.22;;;2.00;;
57105;SDS011;62662;56.788;23.942;2022-09-09T05:18:01;2.60;;;1.95;;
57105;SDS011;62662;56.788;23.942;2022-09-09T05:52:56;3.50;;;2.10;;
57105;SDS011;62662;56.788;23.942;2022-09-09T05:56:11;2.65;;;2.15;;
57105;SDS011;62662;56.788;23.942;2022-09-09T05:58:56;4.57;;;2.08;;
57105;SDS011;62662;56.788;23.942;2022-09-09T06:17:15;4.80;;;1.50;;
57105;SDS011;62662;56.788;23.942;2022-09-09T06:42:18;5.78;;;2.75;;
57105;SDS011;62662;56.788;23.942;2022-09-09T07:31:29;4.40;;;1.20;;
57105;SDS011;62662;56.788;23.942;2022-09-09T07:37:35;4.05;;;1.30;;
57105;SDS011;62662;56.788;23.942;2022-09-09T07:40:40;1.52;;;1.08;;
57105;SDS011;62662;56.788;23.942;2022-09-09T07:43:13;2.13;;;1.60;;
57105;SDS011;62662;56.788;23.942;2022-09-09T07:45:44;1.83;;;1.23;;
57105;SDS011;62662;56.788;23.942;2022-09-09T07:48:14;1.90;;;1.20;;
57105;SDS011;62662;56.788;23.942;2022-09-09T08:07:18;3.00;;;1.55;;
57105;SDS011;62662;56.788;23.942;2022-09-09T08:10:10;5.13;;;1.58;;
57105;SDS011;62662;56.788;23.942;2022-09-09T08:13:16;2.60;;;1.40;;
57105;SDS011;62662;56.788;23.942;2022-09-09T08:16:32;1.55;;;1.20;;
57105;SDS011;62662;56.788;23.942;2022-09-09T08:19:03;3.30;;;1.27;;
57105;SDS011;62662;56.788;23.942;2022-09-09T08:25:53;3.85;;;1.10;;
57105;SDS011;62662;56.788;23.942;2022-09-09T08:29:04;2.30;;;1.25;;
57105;SDS011;62662;56.788;23.942;2022-09-09T08:32:27;2.03;;;1.40;;
57105;SDS011;62662;56.788;23.942;2022-09-09T08:38:37;2.47;;;1.17;;
57105;SDS011;62662;56.788;23.942;2022-09-09T08:41:20;3.75;;;1.42;;
57105;SDS011;62662;56.788;23.942;2022-09-09T08:50:45;1.88;;;1.00;;
57105;SDS011;62662;56.788;23.942;2022-09-09T08:53:28;2.40;;;1.00;;
57105;SDS011;62662;56.788;23.942;2022-09-09T08:56:01;3.58;;;1.10;;
57105;SDS011;62662;56.788;23.942;2022-09-09T08:58:44;3.40;;;1.10;;
57105;SDS011;62662;56.788;23.942;2022-09-09T09:03:54;2.63;;;1.25;;
57105;SDS011;62662;56.788;23.942;2022-09-09T09:06:50;7.18;;;1.52;;
57105;SDS011;62662;56.788;23.942;2022-09-09T09:12:28;2.28;;;1.30;;
57105;SDS011;62662;56.788;23.942;2022-09-09T09:15:01;3.67;;;0.77;;
57105;SDS011;62662;56.788;23.942;2022-09-09T09:17:44;5.03;;;1.00;;
57105;SDS011;62662;56.788;23.942;2022-09-09T09:20:12;2.15;;;1.20;;
57105;SDS011;62662;56.788;23.942;2022-09-09T09:25:18;3.85;;;1.30;;
57105;SDS011;62662;56.788;23.942;2022-09-09T09:31:03;4.78;;;1.40;;
57105;SDS011;62662;56.788;23.942;2022-09-09T09:33:48;3.03;;;1.17;;
57105;SDS011;62662;56.788;23.942;2022-09-09T09:36:41;3.08;;;1.20;;
57105;SDS011;62662;56.788;23.942;2022-09-09T09:47:44;6.13;;;1.50;;
57105;SDS011;62662;56.788;23.942;2022-09-09T09:50:29;1.73;;;1.10;;
57105;SDS011;62662;56.788;23.942;2022-09-09T09:53:04;2.92;;;1.05;;
57105;SDS011;62662;56.788;23.942;2022-09-09T09:55:36;1.33;;;1.15;;
57105;SDS011;62662;56.788;23.942;2022-09-09T10:01:43;2.78;;;0.98;;
57105;SDS011;62662;56.788;23.942;2022-09-09T10:04:44;1.05;;;0.90;;
57105;SDS011;62662;56.788;23.942;2022-09-09T10:07:32;2.25;;;0.70;;
57105;SDS011;62662;56.788;23.942;2022-09-09T10:10:11;4.25;;;1.20;;
57105;SDS011;62662;56.788;23.942;2022-09-09T10:15:38;3.90;;;0.93;;
57105;SDS011;62662;56.788;23.942;2022-09-09T10:18:36;1.33;;;0.93;;
57105;SDS011;62662;56.788;23.942;2022-09-09T10:31:16;1.63;;;1.10;;
57105;SDS011;62662;56.788;23.942;2022-09-09T10:50:19;5.53;;;1.38;;
57105;SDS011;62662;56.788;23.942;2022-09-09T10:56:20;1.92;;;0.90;;
57105;SDS011;62662;56.788;23.942;2022-09-09T10:58:53;1.95;;;1.30;;
57105;SDS011;62662;56.788;23.942;2022-09-09T11:01:39;2.13;;;1.30;;
57105;SDS011;62662;56.788;23.942;2022-09-09T11:04:51;4.25;;;1.30;;
57105;SDS011;62662;56.788;23.942;2022-09-09T11:10:15;2.58;;;1.00;;
57105;SDS011;62662;56.788;23.942;2022-09-09T11:12:57;3.95;;;1.65;;
57105;SDS011;62662;56.788;23.942;2022-09-09T11:15:39;2.50;;;1.50;;
57105;SDS011;62662;56.788;23.942;2022-09-09T11:18:13;2.75;;;1.25;;
57105;SDS011;62662;56.788;23.942;2022-09-09T11:20:46;5.88;;;1.02;;
57105;SDS011;62662;56.788;23.942;2022-09-09T11:23:20;1.73;;;1.08;;
57105;SDS011;62662;56.788;23.942;2022-09-09T11:25:53;2.25;;;1.10;;
57105;SDS011;62662;56.788;23.942;2022-09-09T11:31:40;1.00;;;0.90;;
57105;SDS011;62662;56.788;23.942;2022-09-09T11:40:44;1.27;;;0.80;;
57105;SDS011;62662;56.788;23.942;2022-09-09T11:43:14;2.20;;;0.88;;
57105;SDS011;62662;56.788;23.942;2022-09-09T11:46:06;2.60;;;0.80;;
57105;SDS011;62662;56.788;23.942;2022-09-09T11:56:32;2.08;;;1.05;;
57105;SDS011;62662;56.788;23.942;2022-09-09T11:59:05;2.72;;;1.23;;
57105;SDS011;62662;56.788;23.942;2022-09-09T12:07:01;1.35;;;0.90;;
57105;SDS011;62662;56.788;23.942;2022-09-09T12:17:19;1.75;;;0.93;;
57105;SDS011;62662;56.788;23.942;2022-09-09T12:19:48;1.40;;;0.70;;
57105;SDS011;62662;56.788;23.942;2022-09-09T12:31:06;2.13;;;1.10;;
57105;SDS011;62662;56.788;23.942;2022-09-09T12:33:52;6.53;;;1.42;;
57105;SDS011;62662;56.788;23.942;2022-09-09T12:36:23;1.23;;;0.90;;
57105;SDS011;62662;56.788;23.942;2022-09-09T12:38:55;5.03;;;1.45;;
57105;SDS011;62662;56.788;23.942;2022-09-09T12:41:27;2.50;;;1.23;;
57105;SDS011;62662;56.788;23.942;2022-09-09T12:44:04;1.98;;;1.00;;
57105;SDS011;62662;56.788;23.942;2022-09-09T12:46:43;2.08;;;1.10;;
57105;SDS011;62662;56.788;23.942;2022-09-09T12:52:04;6.68;;;1.35;;
57105;SDS011;62662;56.788;23.942;2022-09-09T12:54:36;3.40;;;1.15;;
57105;SDS011;62662;56.788;23.942;2022-09-09T12:57:04;2.28;;;1.00;;
57105;SDS011;62662;56.788;23.942;2022-09-09T12:59:36;1.90;;;1.00;;
57105;SDS011;62662;56.788;23.942;2022-09-09T13:02:11;2.08;;;1.17;;
57105;SDS011;62662;56.788;23.942;2022-09-09T13:04:48;3.03;;;1.20;;
57105;SDS011;62662;56.788;23.942;2022-09-09T13:07:17;2.15;;;1.02;;
57105;SDS011;62662;56.788;23.942;2022-09-09T13:09:46;1.83;;;1.30;;
57105;SDS011;62662;56.788;23.942;2022-09-09T13:12:16;3.45;;;1.85;;
57105;SDS011;62662;56.788;23.942;2022-09-09T13:14:47;6.07;;;1.33;;
57105;SDS011;62662;56.788;23.942;2022-09-09T13:17:18;3.08;;;1.30;;
57105;SDS011;62662;56.788;23.942;2022-09-09T13:19:48;3.05;;;1.30;;
57105;SDS011;62662;56.788;23.942;2022-09-09T13:22:26;1.70;;;1.27;;
57105;SDS011;62662;56.788;23.942;2022-09-09T13:27:33;2.55;;;1.17;;
57105;SDS011;62662;56.788;23.942;2022-09-09T13:30:19;4.18;;;1.35;;
57105;SDS011;62662;56.788;23.942;2022-09-09T13:33:06;4.13;;;1.77;;
57105;SDS011;62662;56.788;23.942;2022-09-09T13:38:16;3.80;;;1.17;;
57105;SDS011;62662;56.788;23.942;2022-09-09T13:41:00;3.33;;;1.35;;
57105;SDS011;62662;56.788;23.942;2022-09-09T13:43:34;4.85;;;1.15;;
57105;SDS011;62662;56.788;23.942;2022-09-09T13:46:04;2.85;;;1.30;;
57105;SDS011;62662;56.788;23.942;2022-09-09T13:48:57;4.57;;;1.70;;
57105;SDS011;62662;56.788;23.942;2022-09-09T13:51:47;2.45;;;1.27;;
57105;SDS011;62662;56.788;23.942;2022-09-09T13:54:15;3.50;;;1.30;;
57105;SDS011;62662;56.788;23.942;2022-09-09T13:56:43;6.50;;;1.58;;
57105;SDS011;62662;56.788;23.942;2022-09-09T13:59:12;2.08;;;1.50;;
57105;SDS011;62662;56.788;23.942;2022-09-09T14:01:46;3.63;;;1.30;;
57105;SDS011;62662;56.788;23.942;2022-09-09T14:04:13;3.65;;;1.40;;
57105;SDS011;62662;56.788;23.942;2022-09-09T14:06:40;4.47;;;1.40;;
57105;SDS011;62662;56.788;23.942;2022-09-09T14:09:10;3.90;;;1.50;;
57105;SDS011;62662;56.788;23.942;2022-09-09T14:11:39;2.30;;;1.23;;
57105;SDS011;62662;56.788;23.942;2022-09-09T14:14:06;6.63;;;1.40;;
57105;SDS011;62662;56.788;23.942;2022-09-09T14:16:33;8.00;;;1.88;;
57105;SDS011;62662;56.788;23.942;2022-09-09T14:19:01;2.83;;;1.52;;
57105;SDS011;62662;56.788;23.942;2022-09-09T14:21:28;3.33;;;1.30;;
57105;SDS011;62662;56.788;23.942;2022-09-09T14:23:55;5.18;;;1.42;;
57105;SDS011;62662;56.788;23.942;2022-09-09T14:26:24;1.67;;;1.10;;
57105;SDS011;62662;56.788;23.942;2022-09-09T14:28:51;1.90;;;1.25;;
57105;SDS011;62662;56.788;23.942;2022-09-09T14:31:21;3.17;;;1.10;;
57105;SDS011;62662;56.788;23.942;2022-09-09T14:33:49;2.97;;;1.20;;
57105;SDS011;62662;56.788;23.942;2022-09-09T14:36:17;4.40;;;1.60;;
57105;SDS011;62662;56.788;23.942;2022-09-09T14:38:44;3.72;;;1.38;;
57105;SDS011;62662;56.788;23.942;2022-09-09T14:41:12;6.95;;;1.40;;
57105;SDS011;62662;56.788;23.942;2022-09-09T14:43:43;4.88;;;3.33;;
57105;SDS011;62662;56.788;23.942;2022-09-09T14:46:14;9.40;;;1.63;;
57105;SDS011;62662;56.788;23.942;2022-09-09T14:48:44;3.03;;;1.80;;
57105;SDS011;62662;56.788;23.942;2022-09-09T14:51:22;9.05;;;2.00;;
57105;SDS011;62662;56.788;23.942;2022-09-09T14:53:51;3.13;;;1.55;;
57105;SDS011;62662;56.788;23.942;2022-09-09T14:56:20;3.45;;;1.70;;
57105;SDS011;62662;56.788;23.942;2022-09-09T14:58:49;4.32;;;2.20;;
57105;SDS011;62662;56.788;23.942;2022-09-09T15:01:18;5.75;;;2.30;;
57105;SDS011;62662;56.788;23.942;2022-09-09T15:03:51;7.65;;;2.40;;
57105;SDS011;62662;56.788;23.942;2022-09-09T15:06:21;7.68;;;2.05;;
57105;SDS011;62662;56.788;23.942;2022-09-09T15:08:50;3.38;;;2.00;;
57105;SDS011;62662;56.788;23.942;2022-09-09T15:11:18;2.47;;;1.38;;
57105;SDS011;62662;56.788;23.942;2022-09-09T15:13:46;6.00;;;1.50;;
57105;SDS011;62662;56.788;23.942;2022-09-09T15:16:15;1.95;;;1.42;;
57105;SDS011;62662;56.788;23.942;2022-09-09T15:18:45;5.32;;;1.55;;
57105;SDS011;62662;56.788;23.942;2022-09-09T15:21:14;6.97;;;1.58;;
57105;SDS011;62662;56.788;23.942;2022-09-09T15:23:42;7.68;;;2.20;;
57105;SDS011;62662;56.788;23.942;2022-09-09T15:26:10;2.70;;;1.92;;
57105;SDS011;62662;56.788;23.942;2022-09-09T15:28:37;3.88;;;1.83;;
57105;SDS011;62662;56.788;23.942;2022-09-09T15:31:06;8.63;;;2.08;;
57105;SDS011;62662;56.788;23.942;2022-09-09T15:33:36;2.58;;;1.75;;
57105;SDS011;62662;56.788;23.942;2022-09-09T15:36:20;3.60;;;1.70;;
57105;SDS011;62662;56.788;23.942;2022-09-09T15:38:49;5.38;;;1.67;;
57105;SDS011;62662;56.788;23.942;2022-09-09T15:41:18;5.05;;;1.80;;
57105;SDS011;62662;56.788;23.942;2022-09-09T15:43:48;4.45;;;2.60;;
57105;SDS011;62662;56.788;23.942;2022-09-09T15:48:56;2.28;;;1.60;;
57105;SDS011;62662;56.788;23.942;2022-09-09T15:51:45;4.93;;;1.85;;
57105;SDS011;62662;56.788;23.942;2022-09-09T15:54:15;7.18;;;1.63;;
57105;SDS011;62662;56.788;23.942;2022-09-09T15:56:44;4.13;;;2.03;;
57105;SDS011;62662;56.788;23.942;2022-09-09T15:59:15;4.28;;;1.63;;
57105;SDS011;62662;56.788;23.942;2022-09-09T16:01:42;5.07;;;1.70;;
57105;SDS011;62662;56.788;23.942;2022-09-09T16:04:10;8.45;;;2.17;;
57105;SDS011;62662;56.788;23.942;2022-09-09T16:06:38;4.10;;;1.48;;
57105;SDS011;62662;56.788;23.942;2022-09-09T16:09:06;4.82;;;1.70;;
57105;SDS011;62662;56.788;23.942;2022-09-09T16:11:35;4.35;;;1.60;;
57105;SDS011;62662;56.788;23.942;2022-09-09T16:14:04;5.90;;;1.95;;
57105;SDS011;62662;56.788;23.942;2022-09-09T16:16:33;2.13;;;1.40;;
57105;SDS011;62662;56.788;23.942;2022-09-09T16:19:08;7.85;;;1.80;;
57105;SDS011;62662;56.788;23.942;2022-09-09T16:21:40;7.47;;;1.40;;
57105;SDS011;62662;56.788;23.942;2022-09-09T16:24:10;10.48;;;1.80;;
57105;SDS011;62662;56.788;23.942;2022-09-09T16:26:41;4.18;;;1.50;;
57105;SDS011;62662;56.788;23.942;2022-09-09T16:29:13;3.95;;;1.70;;
57105;SDS011;62662;56.788;23.942;2022-09-09T16:31:41;5.63;;;1.77;;
57105;SDS011;62662;56.788;23.942;2022-09-09T16:34:08;4.25;;;1.75;;
57105;SDS011;62662;56.788;23.942;2022-09-09T16:36:37;2.03;;;1.70;;
57105;SDS011;62662;56.788;23.942;2022-09-09T16:39:06;2.63;;;1.30;;
57105;SDS011;62662;56.788;23.942;2022-09-09T16:41:38;5.32;;;1.85;;
57105;SDS011;62662;56.788;23.942;2022-09-09T16:44:09;3.88;;;1.45;;
57105;SDS011;62662;56.788;23.942;2022-09-09T16:46:38;5.70;;;1.98;;
57105;SDS011;62662;56.788;23.942;2022-09-09T16:49:08;4.32;;;1.80;;
57105;SDS011;62662;56.788;23.942;2022-09-09T16:51:41;3.15;;;1.48;;
57105;SDS011;62662;56.788;23.942;2022-09-09T16:54:10;10.15;;;1.80;;
57105;SDS011;62662;56.788;23.942;2022-09-09T16:56:40;7.10;;;2.30;;
57105;SDS011;62662;56.788;23.942;2022-09-09T16:59:19;8.10;;;2.28;;
57105;SDS011;62662;56.788;23.942;2022-09-09T17:01:49;6.65;;;2.42;;
57105;SDS011;62662;56.788;23.942;2022-09-09T17:04:18;6.65;;;2.70;;
57105;SDS011;62662;56.788;23.942;2022-09-09T17:06:48;5.97;;;2.50;;
57105;SDS011;62662;56.788;23.942;2022-09-09T17:09:16;8.15;;;2.30;;
57105;SDS011;62662;56.788;23.942;2022-09-09T17:11:44;4.07;;;2.47;;
57105;SDS011;62662;56.788;23.942;2022-09-09T17:14:16;4.15;;;1.98;;
57105;SDS011;62662;56.788;23.942;2022-09-09T17:16:44;4.93;;;2.10;;
57105;SDS011;62662;56.788;23.942;2022-09-09T17:19:13;7.88;;;2.10;;
57105;SDS011;62662;56.788;23.942;2022-09-09T17:21:40;6.32;;;2.40;;
57105;SDS011;62662;56.788;23.942;2022-09-09T17:24:27;8.85;;;2.50;;
57105;SDS011;62662;56.788;23.942;2022-09-09T17:26:55;6.50;;;2.10;;
57105;SDS011;62662;56.788;23.942;2022-09-09T17:29:27;6.88;;;2.45;;
57105;SDS011;62662;56.788;23.942;2022-09-09T17:31:54;9.75;;;3.13;;
57105;SDS011;62662;56.788;23.942;2022-09-09T17:34:21;4.47;;;2.60;;
57105;SDS011;62662;56.788;23.942;2022-09-09T17:36:49;11.45;;;2.95;;
57105;SDS011;62662;56.788;23.942;2022-09-09T17:39:16;7.90;;;2.67;;
57105;SDS011;62662;56.788;23.942;2022-09-09T17:41:43;6.05;;;2.10;;
57105;SDS011;62662;56.788;23.942;2022-09-09T17:44:12;2.95;;;2.20;;
57105;SDS011;62662;56.788;23.942;2022-09-09T17:46:40;6.35;;;2.40;;
57105;SDS011;62662;56.788;23.942;2022-09-09T17:49:09;3.95;;;2.47;;
57105;SDS011;62662;56.788;23.942;2022-09-09T17:51:41;3.95;;;2.10;;
57105;SDS011;62662;56.788;23.942;2022-09-09T17:54:13;5.28;;;2.00;;
57105;SDS011;62662;56.788;23.942;2022-09-09T17:56:44;7.28;;;2.25;;
57105;SDS011;62662;56.788;23.942;2022-09-09T17:59:13;3.88;;;2.35;;
57105;SDS011;62662;56.788;23.942;2022-09-09T18:01:42;7.78;;;2.10;;
57105;SDS011;62662;56.788;23.942;2022-09-09T18:04:11;13.43;;;2.88;;
57105;SDS011;62662;56.788;23.942;2022-09-09T18:06:41;4.28;;;2.45;;
57105;SDS011;62662;56.788;23.942;2022-09-09T18:09:11;5.20;;;2.13;;
57105;SDS011;62662;56.788;23.942;2022-09-09T18:11:41;6.53;;;2.35;;
57105;SDS011;62662;56.788;23.942;2022-09-09T18:14:11;5.75;;;2.00;;
57105;SDS011;62662;56.788;23.942;2022-09-09T18:16:43;7.32;;;2.53;;
57105;SDS011;62662;56.788;23.942;2022-09-09T18:19:12;5.18;;;1.88;;
57105;SDS011;62662;56.788;23.942;2022-09-09T18:21:42;2.75;;;2.35;;
57105;SDS011;62662;56.788;23.942;2022-09-09T18:24:10;3.80;;;2.10;;
57105;SDS011;62662;56.788;23.942;2022-09-09T18:26:39;5.50;;;2.05;;
57105;SDS011;62662;56.788;23.942;2022-09-09T18:29:11;2.60;;;2.03;;
57105;SDS011;62662;56.788;23.942;2022-09-09T18:31:39;9.23;;;2.88;;
57105;SDS011;62662;56.788;23.942;2022-09-09T18:34:08;4.47;;;2.60;;
57105;SDS011;62662;56.788;23.942;2022-09-09T18:36:42;5.57;;;2.00;;
57105;SDS011;62662;56.788;23.942;2022-09-09T18:39:10;9.80;;;3.00;;
57105;SDS011;62662;56.788;23.942;2022-09-09T18:41:40;7.15;;;2.55;;
57105;SDS011;62662;56.788;23.942;2022-09-09T18:44:13;5.85;;;1.85;;
57105;SDS011;62662;56.788;23.942;2022-09-09T18:46:44;5.80;;;2.10;;
57105;SDS011;62662;56.788;23.942;2022-09-09T18:49:13;6.32;;;2.05;;
57105;SDS011;62662;56.788;23.942;2022-09-09T18:51:42;5.15;;;2.40;;
57105;SDS011;62662;56.788;23.942;2022-09-09T18:54:11;4.70;;;2.15;;
57105;SDS011;62662;56.788;23.942;2022-09-09T18:56:39;6.07;;;2.60;;
57105;SDS011;62662;56.788;23.942;2022-09-09T18:59:09;6.47;;;1.95;;
57105;SDS011;62662;56.788;23.942;2022-09-09T19:01:37;3.75;;;2.22;;
57105;SDS011;62662;56.788;23.942;2022-09-09T19:04:05;3.22;;;1.98;;
57105;SDS011;62662;56.788;23.942;2022-09-09T19:06:35;7.68;;;3.28;;
57105;SDS011;62662;56.788;23.942;2022-09-09T19:09:04;6.20;;;3.28;;
57105;SDS011;62662;56.788;23.942;2022-09-09T19:11:31;9.80;;;4.72;;
57105;SDS011;62662;56.788;23.942;2022-09-09T19:14:00;9.25;;;4.10;;
57105;SDS011;62662;56.788;23.942;2022-09-09T19:16:31;7.07;;;3.45;;
57105;SDS011;62662;56.788;23.942;2022-09-09T19:19:01;3.30;;;2.85;;
57105;SDS011;62662;56.788;23.942;2022-09-09T19:21:38;4.93;;;2.65;;
57105;SDS011;62662;56.788;23.942;2022-09-09T19:26:40;3.15;;;2.22;;
57105;SDS011;62662;56.788;23.942;2022-09-09T19:29:11;3.42;;;2.20;;
57105;SDS011;62662;56.788;23.942;2022-09-09T19:31:41;2.80;;;2.25;;
57105;SDS011;62662;56.788;23.942;2022-09-09T19:34:30;5.88;;;2.30;;
57105;SDS011;62662;56.788;23.942;2022-09-09T19:36:57;8.60;;;2.55;;
57105;SDS011;62662;56.788;23.942;2022-09-09T19:39:26;3.03;;;2.15;;
57105;SDS011;62662;56.788;23.942;2022-09-09T19:41:53;4.55;;;1.95;;
57105;SDS011;62662;56.788;23.942;2022-09-09T19:44:20;2.85;;;2.10;;
57105;SDS011;62662;56.788;23.942;2022-09-09T19:46:47;4.60;;;2.05;;
57105;SDS011;62662;56.788;23.942;2022-09-09T19:49:15;5.25;;;2.42;;
57105;SDS011;62662;56.788;23.942;2022-09-09T19:51:42;3.80;;;2.20;;
57105;SDS011;62662;56.788;23.942;2022-09-09T19:54:11;8.60;;;2.50;;
57105;SDS011;62662;56.788;23.942;2022-09-09T19:56:41;4.15;;;2.53;;
57105;SDS011;62662;56.788;23.942;2022-09-09T19:59:10;9.50;;;2.67;;
57105;SDS011;62662;56.788;23.942;2022-09-09T20:01:39;5.88;;;3.00;;
57105;SDS011;62662;56.788;23.942;2022-09-09T20:04:10;6.38;;;2.63;;
57105;SDS011;62662;56.788;23.942;2022-09-09T20:06:39;6.32;;;3.00;;
57105;SDS011;62662;56.788;23.942;2022-09-09T20:09:09;4.75;;;2.63;;
57105;SDS011;62662;56.788;23.942;2022-09-09T20:11:40;6.40;;;3.03;;
57105;SDS011;62662;56.788;23.942;2022-09-09T20:14:08;5.00;;;2.45;;
57105;SDS011;62662;56.788;23.942;2022-09-09T20:16:37;8.02;;;3.13;;
57105;SDS011;62662;56.788;23.942;2022-09-09T20:19:05;8.02;;;3.00;;
57105;SDS011;62662;56.788;23.942;2022-09-09T20:21:36;3.78;;;2.70;;